sensor_id;sensor_type;location;lat;lon;timestamp;temperature;humidity
4828;DHT22;2428;48.732;9.148;2023-04-25T00:01:23;8.60;99.90
4828;DHT22;2428;48.732;9.148;2023-04-25T00:03:48;8.60;99.90
4828;DHT22;2428;48.732;9.148;2023-04-25T00:06:14;8.60;99.90
4828;DHT22;2428;48.732;9.148;2023-04-25T00:08:40;8.60;99.90
4828;DHT22;2428;48.732;9.148;2023-04-25T00:11:06;8.60;99.90
4828;DHT22;2428;48.732;9.148;2023-04-25T00:13:32;8.60;99.90
4828;DHT22;2428;48.732;9.148;2023-04-25T00:15:57;8.60;99.90
4828;DHT22;2428;48.732;9.148;2023-04-25T00:18:23;8.60;99.90
4828;DHT22;2428;48.732;9.148;2023-04-25T00:20:49;8.50;99.90
4828;DHT22;2428;48.732;9.148;2023-04-25T00:23:16;8.60;99.90
4828;DHT22;2428;48.732;9.148;2023-04-25T00:25:44;8.50;99.90
4828;DHT22;2428;48.732;9.148;2023-04-25T00:28:11;8.50;99.90
4828;DHT22;2428;48.732;9.148;2023-04-25T00:30:36;8.50;99.90
4828;DHT22;2428;48.732;9.148;2023-04-25T00:33:02;8.50;99.90
4828;DHT22;2428;48.732;9.148;2023-04-25T00:35:27;8.50;99.90
4828;DHT22;2428;48.732;9.148;2023-04-25T00:37:54;8.50;99.90
4828;DHT22;2428;48.732;9.148;2023-04-25T00:40:20;8.50;99.90
4828;DHT22;2428;48.732;9.148;2023-04-25T00:42:46;8.50;99.90
4828;DHT22;2428;48.732;9.148;2023-04-25T00:45:13;8.50;99.90
4828;DHT22;2428;48.732;9.148;2023-04-25T00:47:42;8.50;99.90
4828;DHT22;2428;48.732;9.148;2023-04-25T00:50:08;8.50;99.90
4828;DHT22;2428;48.732;9.148;2023-04-25T00:52:35;8.50;99.90
4828;DHT22;2428;48.732;9.148;2023-04-25T00:55:01;8.50;99.90
4828;DHT22;2428;48.732;9.148;2023-04-25T00:57:27;8.50;99.90
4828;DHT22;2428;48.732;9.148;2023-04-25T00:59:54;8.50;99.90
4828;DHT22;2428;48.732;9.148;2023-04-25T01:02:20;8.50;99.90
4828;DHT22;2428;48.732;9.148;2023-04-25T01:04:47;8.50;99.90
4828;DHT22;2428;48.732;9.148;2023-04-25T01:07:13;8.50;99.90
4828;DHT22;2428;48.732;9.148;2023-04-25T01:09:39;8.50;99.90
4828;DHT22;2428;48.732;9.148;2023-04-25T01:12:06;8.50;99.90
4828;DHT22;2428;48.732;9.148;2023-04-25T01:14:31;8.50;99.90
4828;DHT22;2428;48.732;9.148;2023-04-25T01:16:58;8.50;99.90
4828;DHT22;2428;48.732;9.148;2023-04-25T01:19:24;8.50;99.90
4828;DHT22;2428;48.732;9.148;2023-04-25T01:21:50;8.60;99.90
4828;DHT22;2428;48.732;9.148;2023-04-25T01:24:16;8.60;99.90
4828;DHT22;2428;48.732;9.148;2023-04-25T01:26:43;8.50;99.90
4828;DHT22;2428;48.732;9.148;2023-04-25T01:29:17;8.60;99.90
4828;DHT22;2428;48.732;9.148;2023-04-25T01:31:44;8.50;99.90
4828;DHT22;2428;48.732;9.148;2023-04-25T01:34:10;8.60;99.90
4828;DHT22;2428;48.732;9.148;2023-04-25T01:36:36;8.50;99.90
4828;DHT22;2428;48.732;9.148;2023-04-25T01:39:02;8.50;99.90
4828;DHT22;2428;48.732;9.148;2023-04-25T01:41:28;8.40;99.90
4828;DHT22;2428;48.732;9.148;2023-04-25T01:43:54;8.40;99.90
4828;DHT22;2428;48.732;9.148;2023-04-25T01:46:20;8.30;99.90
4828;DHT22;2428;48.732;9.148;2023-04-25T01:48:45;8.30;99.90
4828;DHT22;2428;48.732;9.148;2023-04-25T01:51:11;8.30;99.90
4828;DHT22;2428;48.732;9.148;2023-04-25T01:53:38;8.30;99.90
4828;DHT22;2428;48.732;9.148;2023-04-25T01:56:04;8.10;99.90
4828;DHT22;2428;48.732;9.148;2023-04-25T01:58:30;8.00;99.90
4828;DHT22;2428;48.732;9.148;2023-04-25T02:00:55;8.00;99.90
4828;DHT22;2428;48.732;9.148;2023-04-25T02:03:21;8.00;99.90
4828;DHT22;2428;48.732;9.148;2023-04-25T02:05:47;8.00;99.90
4828;DHT22;2428;48.732;9.148;2023-04-25T02:08:12;8.00;99.90
4828;DHT22;2428;48.732;9.148;2023-04-25T02:10:38;8.00;99.90
4828;DHT22;2428;48.732;9.148;2023-04-25T02:13:04;8.00;99.90
4828;DHT22;2428;48.732;9.148;2023-04-25T02:15:30;7.90;99.90
4828;DHT22;2428;48.732;9.148;2023-04-25T02:17:56;8.00;99.90
4828;DHT22;2428;48.732;9.148;2023-04-25T02:20:24;7.90;99.90
4828;DHT22;2428;48.732;9.148;2023-04-25T02:22:50;7.90;99.90
4828;DHT22;2428;48.732;9.148;2023-04-25T02:25:16;7.80;99.90
4828;DHT22;2428;48.732;9.148;2023-04-25T02:27:42;7.80;99.90
4828;DHT22;2428;48.732;9.148;2023-04-25T02:30:08;7.80;99.90
4828;DHT22;2428;48.732;9.148;2023-04-25T02:32:34;7.80;99.90
4828;DHT22;2428;48.732;9.148;2023-04-25T02:35:01;7.90;99.90
4828;DHT22;2428;48.732;9.148;2023-04-25T02:37:30;8.00;99.90
4828;DHT22;2428;48.732;9.148;2023-04-25T02:39:56;8.00;99.90
4828;DHT22;2428;48.732;9.148;2023-04-25T02:42:22;8.00;99.90
4828;DHT22;2428;48.732;9.148;2023-04-25T02:44:47;8.00;99.90
4828;DHT22;2428;48.732;9.148;2023-04-25T02:47:13;8.00;99.90
4828;DHT22;2428;48.732;9.148;2023-04-25T02:49:38;8.00;99.90
4828;DHT22;2428;48.732;9.148;2023-04-25T02:52:04;8.10;99.90
4828;DHT22;2428;48.732;9.148;2023-04-25T02:54:30;8.10;99.90
4828;DHT22;2428;48.732;9.148;2023-04-25T02:56:55;8.10;99.90
4828;DHT22;2428;48.732;9.148;2023-04-25T02:59:21;8.10;99.90
4828;DHT22;2428;48.732;9.148;2023-04-25T03:01:47;8.00;99.90
4828;DHT22;2428;48.732;9.148;2023-04-25T03:04:12;7.90;99.90
4828;DHT22;2428;48.732;9.148;2023-04-25T03:06:38;7.80;99.90
4828;DHT22;2428;48.732;9.148;2023-04-25T03:09:03;7.90;99.90
4828;DHT22;2428;48.732;9.148;2023-04-25T03:11:29;7.90;99.90
4828;DHT22;2428;48.732;9.148;2023-04-25T03:13:55;7.80;99.90
4828;DHT22;2428;48.732;9.148;2023-04-25T03:16:21;7.80;99.90
4828;DHT22;2428;48.732;9.148;2023-04-25T03:18:47;7.80;99.90
4828;DHT22;2428;48.732;9.148;2023-04-25T03:21:12;7.80;99.90
4828;DHT22;2428;48.732;9.148;2023-04-25T03:23:38;7.80;99.90
4828;DHT22;2428;48.732;9.148;2023-04-25T03:26:03;7.90;99.90
4828;DHT22;2428;48.732;9.148;2023-04-25T03:28:29;7.90;99.90
4828;DHT22;2428;48.732;9.148;2023-04-25T03:30:55;7.90;99.90
4828;DHT22;2428;48.732;9.148;2023-04-25T03:33:20;7.80;99.90
4828;DHT22;2428;48.732;9.148;2023-04-25T03:35:46;7.80;99.90
4828;DHT22;2428;48.732;9.148;2023-04-25T03:38:11;7.80;99.90
4828;DHT22;2428;48.732;9.148;2023-04-25T03:40:37;7.80;99.90
4828;DHT22;2428;48.732;9.148;2023-04-25T03:43:03;7.80;99.90
4828;DHT22;2428;48.732;9.148;2023-04-25T03:45:28;7.80;99.90
4828;DHT22;2428;48.732;9.148;2023-04-25T03:47:54;7.80;99.90
4828;DHT22;2428;48.732;9.148;2023-04-25T03:50:19;7.80;99.90
4828;DHT22;2428;48.732;9.148;2023-04-25T03:52:45;7.90;99.90
4828;DHT22;2428;48.732;9.148;2023-04-25T03:55:10;7.90;99.90
4828;DHT22;2428;48.732;9.148;2023-04-25T03:57:36;7.80;99.90
4828;DHT22;2428;48.732;9.148;2023-04-25T04:00:02;7.90;99.90
4828;DHT22;2428;48.732;9.148;2023-04-25T04:02:29;7.90;99.90
4828;DHT22;2428;48.732;9.148;2023-04-25T04:04:54;7.90;99.90
4828;DHT22;2428;48.732;9.148;2023-04-25T04:07:21;7.90;99.90
4828;DHT22;2428;48.732;9.148;2023-04-25T04:09:47;7.90;99.90
4828;DHT22;2428;48.732;9.148;2023-04-25T04:12:13;7.80;99.90
4828;DHT22;2428;48.732;9.148;2023-04-25T04:14:40;7.70;99.90
4828;DHT22;2428;48.732;9.148;2023-04-25T04:17:05;7.70;99.90
4828;DHT22;2428;48.732;9.148;2023-04-25T04:19:31;7.70;99.90
4828;DHT22;2428;48.732;9.148;2023-04-25T04:21:56;7.80;99.90
4828;DHT22;2428;48.732;9.148;2023-04-25T04:24:23;7.80;99.90
4828;DHT22;2428;48.732;9.148;2023-04-25T04:26:49;7.70;99.90
4828;DHT22;2428;48.732;9.148;2023-04-25T04:29:16;7.70;99.90
4828;DHT22;2428;48.732;9.148;2023-04-25T04:31:48;7.70;99.90
4828;DHT22;2428;48.732;9.148;2023-04-25T04:34:14;7.70;99.90
4828;DHT22;2428;48.732;9.148;2023-04-25T04:36:42;7.70;99.90
4828;DHT22;2428;48.732;9.148;2023-04-25T04:39:07;7.80;99.90
4828;DHT22;2428;48.732;9.148;2023-04-25T04:41:34;7.70;99.90
4828;DHT22;2428;48.732;9.148;2023-04-25T04:44:00;7.70;99.90
4828;DHT22;2428;48.732;9.148;2023-04-25T04:46:26;7.70;99.90
4828;DHT22;2428;48.732;9.148;2023-04-25T04:48:53;7.70;99.90
4828;DHT22;2428;48.732;9.148;2023-04-25T04:51:19;7.70;99.90
4828;DHT22;2428;48.732;9.148;2023-04-25T04:53:46;7.70;99.90
4828;DHT22;2428;48.732;9.148;2023-04-25T04:56:11;7.60;99.90
4828;DHT22;2428;48.732;9.148;2023-04-25T04:58:37;7.60;99.90
4828;DHT22;2428;48.732;9.148;2023-04-25T05:01:02;7.60;99.90
4828;DHT22;2428;48.732;9.148;2023-04-25T05:03:28;7.50;99.90
4828;DHT22;2428;48.732;9.148;2023-04-25T05:05:54;7.50;99.90
4828;DHT22;2428;48.732;9.148;2023-04-25T05:08:19;7.60;99.90
4828;DHT22;2428;48.732;9.148;2023-04-25T05:10:45;7.70;99.90
4828;DHT22;2428;48.732;9.148;2023-04-25T05:13:10;7.80;99.90
4828;DHT22;2428;48.732;9.148;2023-04-25T05:15:36;7.80;99.90
4828;DHT22;2428;48.732;9.148;2023-04-25T05:18:02;7.80;99.90
4828;DHT22;2428;48.732;9.148;2023-04-25T05:20:27;7.80;99.90
4828;DHT22;2428;48.732;9.148;2023-04-25T05:22:53;7.80;99.90
4828;DHT22;2428;48.732;9.148;2023-04-25T05:25:18;7.90;99.90
4828;DHT22;2428;48.732;9.148;2023-04-25T05:27:44;7.90;99.90
4828;DHT22;2428;48.732;9.148;2023-04-25T05:30:10;7.80;99.90
4828;DHT22;2428;48.732;9.148;2023-04-25T05:32:35;7.70;99.90
4828;DHT22;2428;48.732;9.148;2023-04-25T05:35:02;7.80;99.90
4828;DHT22;2428;48.732;9.148;2023-04-25T05:37:28;7.80;99.90
4828;DHT22;2428;48.732;9.148;2023-04-25T05:39:55;7.80;99.90
4828;DHT22;2428;48.732;9.148;2023-04-25T05:42:21;7.90;99.90
4828;DHT22;2428;48.732;9.148;2023-04-25T05:44:47;7.90;99.90
4828;DHT22;2428;48.732;9.148;2023-04-25T05:47:12;8.00;99.90
4828;DHT22;2428;48.732;9.148;2023-04-25T05:49:38;8.10;99.90
4828;DHT22;2428;48.732;9.148;2023-04-25T05:52:04;8.20;99.90
4828;DHT22;2428;48.732;9.148;2023-04-25T05:54:29;8.30;99.90
4828;DHT22;2428;48.732;9.148;2023-04-25T05:56:56;8.40;99.90
4828;DHT22;2428;48.732;9.148;2023-04-25T05:59:22;8.40;99.90
4828;DHT22;2428;48.732;9.148;2023-04-25T06:01:47;8.30;99.90
4828;DHT22;2428;48.732;9.148;2023-04-25T06:04:13;8.30;99.90
4828;DHT22;2428;48.732;9.148;2023-04-25T06:06:39;8.30;99.90
4828;DHT22;2428;48.732;9.148;2023-04-25T06:09:04;8.30;99.90
4828;DHT22;2428;48.732;9.148;2023-04-25T06:11:30;8.30;99.90
4828;DHT22;2428;48.732;9.148;2023-04-25T06:13:55;8.30;99.90
4828;DHT22;2428;48.732;9.148;2023-04-25T06:16:21;8.30;99.90
4828;DHT22;2428;48.732;9.148;2023-04-25T06:18:46;8.30;99.90
4828;DHT22;2428;48.732;9.148;2023-04-25T06:21:12;8.30;99.90
4828;DHT22;2428;48.732;9.148;2023-04-25T06:23:38;8.30;99.90
4828;DHT22;2428;48.732;9.148;2023-04-25T06:26:03;8.30;99.90
4828;DHT22;2428;48.732;9.148;2023-04-25T06:28:29;8.20;99.90
4828;DHT22;2428;48.732;9.148;2023-04-25T06:30:54;8.10;99.90
4828;DHT22;2428;48.732;9.148;2023-04-25T06:33:20;8.10;99.90
4828;DHT22;2428;48.732;9.148;2023-04-25T06:35:46;8.10;99.90
4828;DHT22;2428;48.732;9.148;2023-04-25T06:38:12;8.10;99.90
4828;DHT22;2428;48.732;9.148;2023-04-25T06:40:38;8.20;99.90
4828;DHT22;2428;48.732;9.148;2023-04-25T06:43:04;8.10;99.90
4828;DHT22;2428;48.732;9.148;2023-04-25T06:45:30;8.00;99.90
4828;DHT22;2428;48.732;9.148;2023-04-25T06:47:55;8.00;99.90
4828;DHT22;2428;48.732;9.148;2023-04-25T06:50:21;7.90;99.90
4828;DHT22;2428;48.732;9.148;2023-04-25T06:52:47;7.90;99.90
4828;DHT22;2428;48.732;9.148;2023-04-25T06:55:12;7.90;99.90
4828;DHT22;2428;48.732;9.148;2023-04-25T06:57:38;7.90;99.90
4828;DHT22;2428;48.732;9.148;2023-04-25T07:00:04;7.90;99.90
4828;DHT22;2428;48.732;9.148;2023-04-25T07:02:33;7.90;99.90
4828;DHT22;2428;48.732;9.148;2023-04-25T07:04:59;7.90;99.90
4828;DHT22;2428;48.732;9.148;2023-04-25T07:07:25;7.90;99.90
4828;DHT22;2428;48.732;9.148;2023-04-25T07:09:51;7.80;99.90
4828;DHT22;2428;48.732;9.148;2023-04-25T07:12:16;7.80;99.90
4828;DHT22;2428;48.732;9.148;2023-04-25T07:14:42;7.80;99.90
4828;DHT22;2428;48.732;9.148;2023-04-25T07:17:08;7.80;99.90
4828;DHT22;2428;48.732;9.148;2023-04-25T07:19:33;7.90;99.90
4828;DHT22;2428;48.732;9.148;2023-04-25T07:21:59;7.90;99.90
4828;DHT22;2428;48.732;9.148;2023-04-25T07:24:25;7.90;99.90
4828;DHT22;2428;48.732;9.148;2023-04-25T07:26:51;7.90;99.90
4828;DHT22;2428;48.732;9.148;2023-04-25T07:29:17;7.90;99.90
4828;DHT22;2428;48.732;9.148;2023-04-25T07:31:42;7.90;99.90
4828;DHT22;2428;48.732;9.148;2023-04-25T07:34:08;7.90;99.90
4828;DHT22;2428;48.732;9.148;2023-04-25T07:36:33;7.80;99.90
4828;DHT22;2428;48.732;9.148;2023-04-25T07:38:59;7.60;99.90
4828;DHT22;2428;48.732;9.148;2023-04-25T07:41:24;7.60;99.90
4828;DHT22;2428;48.732;9.148;2023-04-25T07:43:50;7.60;99.90
4828;DHT22;2428;48.732;9.148;2023-04-25T07:46:15;7.60;99.90
4828;DHT22;2428;48.732;9.148;2023-04-25T07:48:41;7.70;99.90
4828;DHT22;2428;48.732;9.148;2023-04-25T07:51:06;7.70;99.90
4828;DHT22;2428;48.732;9.148;2023-04-25T07:53:32;7.70;99.90
4828;DHT22;2428;48.732;9.148;2023-04-25T07:56:00;7.60;99.90
4828;DHT22;2428;48.732;9.148;2023-04-25T07:58:25;7.60;99.90
4828;DHT22;2428;48.732;9.148;2023-04-25T08:00:51;7.60;99.90
4828;DHT22;2428;48.732;9.148;2023-04-25T08:03:16;7.60;99.90
4828;DHT22;2428;48.732;9.148;2023-04-25T08:05:42;7.60;99.90
4828;DHT22;2428;48.732;9.148;2023-04-25T08:08:08;7.70;99.90
4828;DHT22;2428;48.732;9.148;2023-04-25T08:10:34;7.70;99.90
4828;DHT22;2428;48.732;9.148;2023-04-25T08:12:59;7.70;99.90
4828;DHT22;2428;48.732;9.148;2023-04-25T08:15:25;7.70;99.90
4828;DHT22;2428;48.732;9.148;2023-04-25T08:17:51;7.60;99.90
4828;DHT22;2428;48.732;9.148;2023-04-25T08:20:17;7.60;99.90
4828;DHT22;2428;48.732;9.148;2023-04-25T08:22:43;7.40;99.90
4828;DHT22;2428;48.732;9.148;2023-04-25T08:25:08;7.50;99.90
4828;DHT22;2428;48.732;9.148;2023-04-25T08:27:34;7.60;99.90
4828;DHT22;2428;48.732;9.148;2023-04-25T08:30:00;7.70;99.90
4828;DHT22;2428;48.732;9.148;2023-04-25T08:32:27;7.60;99.90
4828;DHT22;2428;48.732;9.148;2023-04-25T08:34:52;7.50;99.90
4828;DHT22;2428;48.732;9.148;2023-04-25T08:37:20;7.50;99.90
4828;DHT22;2428;48.732;9.148;2023-04-25T08:39:46;7.50;99.90
4828;DHT22;2428;48.732;9.148;2023-04-25T08:42:14;7.40;99.90
4828;DHT22;2428;48.732;9.148;2023-04-25T08:44:40;7.40;99.90
4828;DHT22;2428;48.732;9.148;2023-04-25T08:47:06;7.40;99.90
4828;DHT22;2428;48.732;9.148;2023-04-25T08:49:33;7.30;99.90
4828;DHT22;2428;48.732;9.148;2023-04-25T08:52:04;7.30;99.90
4828;DHT22;2428;48.732;9.148;2023-04-25T08:54:32;7.30;99.90
4828;DHT22;2428;48.732;9.148;2023-04-25T08:57:02;7.30;99.90
4828;DHT22;2428;48.732;9.148;2023-04-25T08:59:30;7.30;99.90
4828;DHT22;2428;48.732;9.148;2023-04-25T09:01:57;7.30;99.90
4828;DHT22;2428;48.732;9.148;2023-04-25T09:04:23;7.30;99.90
4828;DHT22;2428;48.732;9.148;2023-04-25T09:06:48;7.30;99.90
4828;DHT22;2428;48.732;9.148;2023-04-25T09:09:14;7.20;99.90
4828;DHT22;2428;48.732;9.148;2023-04-25T09:11:40;7.10;99.90
4828;DHT22;2428;48.732;9.148;2023-04-25T09:14:17;7.20;99.90
4828;DHT22;2428;48.732;9.148;2023-04-25T09:19:42;7.10;99.90
4828;DHT22;2428;48.732;9.148;2023-04-25T09:22:10;7.10;99.90
4828;DHT22;2428;48.732;9.148;2023-04-25T09:27:06;7.20;99.90
4828;DHT22;2428;48.732;9.148;2023-04-25T09:29:37;7.20;99.90
4828;DHT22;2428;48.732;9.148;2023-04-25T09:34:48;7.10;99.90
4828;DHT22;2428;48.732;9.148;2023-04-25T09:37:20;7.00;99.90
4828;DHT22;2428;48.732;9.148;2023-04-25T09:39:47;7.10;99.90
4828;DHT22;2428;48.732;9.148;2023-04-25T09:42:14;7.10;99.90
4828;DHT22;2428;48.732;9.148;2023-04-25T09:44:45;7.10;99.90
4828;DHT22;2428;48.732;9.148;2023-04-25T09:47:15;7.00;99.90
4828;DHT22;2428;48.732;9.148;2023-04-25T09:49:42;7.00;99.90
4828;DHT22;2428;48.732;9.148;2023-04-25T09:52:09;6.90;99.90
4828;DHT22;2428;48.732;9.148;2023-04-25T09:54:38;6.80;99.90
4828;DHT22;2428;48.732;9.148;2023-04-25T09:57:17;6.60;99.90
4828;DHT22;2428;48.732;9.148;2023-04-25T09:59:52;6.70;99.90
4828;DHT22;2428;48.732;9.148;2023-04-25T10:02:19;6.60;99.90
4828;DHT22;2428;48.732;9.148;2023-04-25T10:04:51;6.60;99.90
4828;DHT22;2428;48.732;9.148;2023-04-25T10:07:18;6.60;99.90
4828;DHT22;2428;48.732;9.148;2023-04-25T10:09:48;6.60;99.90
4828;DHT22;2428;48.732;9.148;2023-04-25T10:12:15;6.60;99.90
4828;DHT22;2428;48.732;9.148;2023-04-25T10:14:42;6.70;99.90
4828;DHT22;2428;48.732;9.148;2023-04-25T10:17:10;6.80;99.90
4828;DHT22;2428;48.732;9.148;2023-04-25T10:19:36;6.80;99.90
4828;DHT22;2428;48.732;9.148;2023-04-25T10:22:18;6.80;99.90
4828;DHT22;2428;48.732;9.148;2023-04-25T10:24:46;6.70;99.90
4828;DHT22;2428;48.732;9.148;2023-04-25T10:27:12;6.70;99.90
4828;DHT22;2428;48.732;9.148;2023-04-25T10:29:38;6.80;99.90
4828;DHT22;2428;48.732;9.148;2023-04-25T10:32:04;6.80;99.90
4828;DHT22;2428;48.732;9.148;2023-04-25T10:34:40;6.80;99.90
4828;DHT22;2428;48.732;9.148;2023-04-25T10:37:09;6.90;99.90
4828;DHT22;2428;48.732;9.148;2023-04-25T10:39:35;6.90;99.90
4828;DHT22;2428;48.732;9.148;2023-04-25T10:42:03;6.90;99.90
4828;DHT22;2428;48.732;9.148;2023-04-25T10:44:31;6.90;99.90
4828;DHT22;2428;48.732;9.148;2023-04-25T10:46:58;7.00;99.90
4828;DHT22;2428;48.732;9.148;2023-04-25T10:49:35;7.00;99.90
4828;DHT22;2428;48.732;9.148;2023-04-25T10:52:25;7.00;99.90
4828;DHT22;2428;48.732;9.148;2023-04-25T10:54:56;7.10;99.90
4828;DHT22;2428;48.732;9.148;2023-04-25T10:57:53;7.20;99.90
4828;DHT22;2428;48.732;9.148;2023-04-25T11:00:20;7.30;99.90
4828;DHT22;2428;48.732;9.148;2023-04-25T11:02:48;7.30;99.90
4828;DHT22;2428;48.732;9.148;2023-04-25T11:05:23;7.10;99.90
4828;DHT22;2428;48.732;9.148;2023-04-25T11:07:55;7.10;99.90
4828;DHT22;2428;48.732;9.148;2023-04-25T11:10:27;7.00;99.90
4828;DHT22;2428;48.732;9.148;2023-04-25T11:12:53;7.10;99.90
4828;DHT22;2428;48.732;9.148;2023-04-25T11:15:19;7.00;99.90
4828;DHT22;2428;48.732;9.148;2023-04-25T11:17:44;6.80;99.90
4828;DHT22;2428;48.732;9.148;2023-04-25T11:20:12;6.90;99.90
4828;DHT22;2428;48.732;9.148;2023-04-25T11:22:39;6.80;99.90
4828;DHT22;2428;48.732;9.148;2023-04-25T11:25:09;6.70;99.90
4828;DHT22;2428;48.732;9.148;2023-04-25T11:27:58;6.70;99.90
4828;DHT22;2428;48.732;9.148;2023-04-25T11:30:24;6.60;99.90
4828;DHT22;2428;48.732;9.148;2023-04-25T11:32:50;6.80;99.90
4828;DHT22;2428;48.732;9.148;2023-04-25T11:35:18;6.90;99.90
4828;DHT22;2428;48.732;9.148;2023-04-25T11:37:44;7.00;99.90
4828;DHT22;2428;48.732;9.148;2023-04-25T11:40:11;7.20;99.90
4828;DHT22;2428;48.732;9.148;2023-04-25T11:42:38;7.20;99.90
4828;DHT22;2428;48.732;9.148;2023-04-25T11:45:04;7.30;99.90
4828;DHT22;2428;48.732;9.148;2023-04-25T11:47:31;7.30;99.90
4828;DHT22;2428;48.732;9.148;2023-04-25T11:50:04;7.30;99.90
4828;DHT22;2428;48.732;9.148;2023-04-25T11:52:42;7.40;99.90
4828;DHT22;2428;48.732;9.148;2023-04-25T11:55:15;7.40;99.90
4828;DHT22;2428;48.732;9.148;2023-04-25T11:57:41;7.60;99.90
4828;DHT22;2428;48.732;9.148;2023-04-25T12:00:12;7.70;99.90
4828;DHT22;2428;48.732;9.148;2023-04-25T12:02:45;7.80;99.90
4828;DHT22;2428;48.732;9.148;2023-04-25T12:05:13;7.90;99.90
4828;DHT22;2428;48.732;9.148;2023-04-25T12:07:40;8.00;99.90
4828;DHT22;2428;48.732;9.148;2023-04-25T12:10:10;7.90;99.90
4828;DHT22;2428;48.732;9.148;2023-04-25T12:12:37;8.00;99.90
4828;DHT22;2428;48.732;9.148;2023-04-25T12:15:10;7.90;99.90
4828;DHT22;2428;48.732;9.148;2023-04-25T12:17:37;7.90;99.90
4828;DHT22;2428;48.732;9.148;2023-04-25T12:20:14;7.90;99.90
4828;DHT22;2428;48.732;9.148;2023-04-25T12:22:44;8.00;99.90
4828;DHT22;2428;48.732;9.148;2023-04-25T12:25:43;7.80;99.90
4828;DHT22;2428;48.732;9.148;2023-04-25T12:28:18;7.60;99.90
4828;DHT22;2428;48.732;9.148;2023-04-25T12:33:21;7.30;99.90
4828;DHT22;2428;48.732;9.148;2023-04-25T12:35:47;7.40;99.90
4828;DHT22;2428;48.732;9.148;2023-04-25T12:38:24;7.40;99.90
4828;DHT22;2428;48.732;9.148;2023-04-25T12:40:50;7.60;99.90
4828;DHT22;2428;48.732;9.148;2023-04-25T12:43:16;7.80;99.90
4828;DHT22;2428;48.732;9.148;2023-04-25T12:45:42;7.90;99.90
4828;DHT22;2428;48.732;9.148;2023-04-25T12:48:08;7.70;99.90
4828;DHT22;2428;48.732;9.148;2023-04-25T12:50:33;7.70;99.90
4828;DHT22;2428;48.732;9.148;2023-04-25T12:52:59;7.90;99.90
4828;DHT22;2428;48.732;9.148;2023-04-25T12:55:25;7.90;99.90
4828;DHT22;2428;48.732;9.148;2023-04-25T12:57:51;8.20;99.90
4828;DHT22;2428;48.732;9.148;2023-04-25T13:00:17;8.20;99.90
4828;DHT22;2428;48.732;9.148;2023-04-25T13:02:45;8.30;99.90
4828;DHT22;2428;48.732;9.148;2023-04-25T13:05:12;8.40;99.90
4828;DHT22;2428;48.732;9.148;2023-04-25T13:07:38;8.50;99.90
4828;DHT22;2428;48.732;9.148;2023-04-25T13:10:04;8.70;99.90
4828;DHT22;2428;48.732;9.148;2023-04-25T13:12:31;8.90;99.90
4828;DHT22;2428;48.732;9.148;2023-04-25T13:14:57;9.00;99.90
4828;DHT22;2428;48.732;9.148;2023-04-25T13:17:22;9.20;99.90
4828;DHT22;2428;48.732;9.148;2023-04-25T13:19:48;8.90;99.90
4828;DHT22;2428;48.732;9.148;2023-04-25T13:22:13;8.90;99.90
4828;DHT22;2428;48.732;9.148;2023-04-25T13:24:40;8.90;99.90
4828;DHT22;2428;48.732;9.148;2023-04-25T13:27:07;8.90;99.90
4828;DHT22;2428;48.732;9.148;2023-04-25T13:29:32;9.00;99.90
4828;DHT22;2428;48.732;9.148;2023-04-25T13:32:01;9.10;99.90
4828;DHT22;2428;48.732;9.148;2023-04-25T13:34:27;9.00;99.90
4828;DHT22;2428;48.732;9.148;2023-04-25T13:36:53;8.90;99.90
4828;DHT22;2428;48.732;9.148;2023-04-25T13:39:19;8.90;99.90
4828;DHT22;2428;48.732;9.148;2023-04-25T13:41:45;9.00;99.90
4828;DHT22;2428;48.732;9.148;2023-04-25T13:44:10;9.20;99.90
4828;DHT22;2428;48.732;9.148;2023-04-25T13:46:36;9.10;99.90
4828;DHT22;2428;48.732;9.148;2023-04-25T13:49:05;9.20;99.90
4828;DHT22;2428;48.732;9.148;2023-04-25T13:51:31;9.20;99.90
4828;DHT22;2428;48.732;9.148;2023-04-25T13:53:57;9.00;99.90
4828;DHT22;2428;48.732;9.148;2023-04-25T13:56:23;8.90;99.90
4828;DHT22;2428;48.732;9.148;2023-04-25T13:58:50;8.80;99.90
4828;DHT22;2428;48.732;9.148;2023-04-25T14:01:17;8.90;99.90
4828;DHT22;2428;48.732;9.148;2023-04-25T14:03:42;8.80;99.90
4828;DHT22;2428;48.732;9.148;2023-04-25T14:06:08;8.90;99.90
4828;DHT22;2428;48.732;9.148;2023-04-25T14:08:34;8.90;99.90
4828;DHT22;2428;48.732;9.148;2023-04-25T14:11:00;8.70;99.90
4828;DHT22;2428;48.732;9.148;2023-04-25T14:13:26;8.80;99.90
4828;DHT22;2428;48.732;9.148;2023-04-25T14:15:52;8.90;99.90
4828;DHT22;2428;48.732;9.148;2023-04-25T14:18:18;9.00;99.90
4828;DHT22;2428;48.732;9.148;2023-04-25T14:20:44;9.20;99.90
4828;DHT22;2428;48.732;9.148;2023-04-25T14:23:10;9.20;99.90
4828;DHT22;2428;48.732;9.148;2023-04-25T14:25:35;9.30;99.90
4828;DHT22;2428;48.732;9.148;2023-04-25T14:28:02;9.50;99.90
4828;DHT22;2428;48.732;9.148;2023-04-25T14:30:27;9.60;99.90
4828;DHT22;2428;48.732;9.148;2023-04-25T14:32:54;9.80;99.90
4828;DHT22;2428;48.732;9.148;2023-04-25T14:35:19;9.90;99.90
4828;DHT22;2428;48.732;9.148;2023-04-25T14:37:45;10.00;99.90
4828;DHT22;2428;48.732;9.148;2023-04-25T14:40:11;10.10;99.90
4828;DHT22;2428;48.732;9.148;2023-04-25T14:42:39;10.10;99.90
4828;DHT22;2428;48.732;9.148;2023-04-25T14:45:06;10.20;99.90
4828;DHT22;2428;48.732;9.148;2023-04-25T14:47:38;10.10;99.90
4828;DHT22;2428;48.732;9.148;2023-04-25T14:50:05;10.20;99.90
4828;DHT22;2428;48.732;9.148;2023-04-25T14:52:30;10.10;99.90
4828;DHT22;2428;48.732;9.148;2023-04-25T14:54:56;10.00;99.90
4828;DHT22;2428;48.732;9.148;2023-04-25T14:57:22;9.90;99.90
4828;DHT22;2428;48.732;9.148;2023-04-25T14:59:47;9.90;99.90
4828;DHT22;2428;48.732;9.148;2023-04-25T15:02:13;10.00;99.90
4828;DHT22;2428;48.732;9.148;2023-04-25T15:04:39;10.20;99.90
4828;DHT22;2428;48.732;9.148;2023-04-25T15:07:05;10.10;99.90
4828;DHT22;2428;48.732;9.148;2023-04-25T15:09:31;10.00;99.90
4828;DHT22;2428;48.732;9.148;2023-04-25T15:11:57;10.10;99.90
4828;DHT22;2428;48.732;9.148;2023-04-25T15:14:23;10.00;99.90
4828;DHT22;2428;48.732;9.148;2023-04-25T15:16:48;10.10;99.90
4828;DHT22;2428;48.732;9.148;2023-04-25T15:19:14;10.20;99.90
4828;DHT22;2428;48.732;9.148;2023-04-25T15:21:40;10.40;99.90
4828;DHT22;2428;48.732;9.148;2023-04-25T15:24:06;10.50;99.90
4828;DHT22;2428;48.732;9.148;2023-04-25T15:26:31;10.60;99.90
4828;DHT22;2428;48.732;9.148;2023-04-25T15:28:57;10.50;99.90
4828;DHT22;2428;48.732;9.148;2023-04-25T15:31:23;10.30;99.90
4828;DHT22;2428;48.732;9.148;2023-04-25T15:33:49;10.20;99.90
4828;DHT22;2428;48.732;9.148;2023-04-25T15:36:14;10.30;99.90
4828;DHT22;2428;48.732;9.148;2023-04-25T15:38:42;10.30;99.90
4828;DHT22;2428;48.732;9.148;2023-04-25T15:41:07;10.40;99.90
4828;DHT22;2428;48.732;9.148;2023-04-25T15:43:33;10.30;99.90
4828;DHT22;2428;48.732;9.148;2023-04-25T15:46:02;10.30;99.90
4828;DHT22;2428;48.732;9.148;2023-04-25T15:48:28;10.30;99.90
4828;DHT22;2428;48.732;9.148;2023-04-25T15:50:53;10.30;99.90
4828;DHT22;2428;48.732;9.148;2023-04-25T15:53:19;10.20;99.90
4828;DHT22;2428;48.732;9.148;2023-04-25T15:55:45;10.10;99.90
4828;DHT22;2428;48.732;9.148;2023-04-25T15:58:10;9.90;99.90
4828;DHT22;2428;48.732;9.148;2023-04-25T16:00:36;10.00;99.90
4828;DHT22;2428;48.732;9.148;2023-04-25T16:03:02;10.00;99.90
4828;DHT22;2428;48.732;9.148;2023-04-25T16:05:28;10.00;99.90
4828;DHT22;2428;48.732;9.148;2023-04-25T16:07:54;10.00;99.90
4828;DHT22;2428;48.732;9.148;2023-04-25T16:10:20;9.90;99.90
4828;DHT22;2428;48.732;9.148;2023-04-25T16:12:46;9.80;99.90
4828;DHT22;2428;48.732;9.148;2023-04-25T16:15:13;9.90;99.90
4828;DHT22;2428;48.732;9.148;2023-04-25T16:17:38;9.80;99.90
4828;DHT22;2428;48.732;9.148;2023-04-25T16:20:04;9.80;99.90
4828;DHT22;2428;48.732;9.148;2023-04-25T16:22:35;9.90;99.90
4828;DHT22;2428;48.732;9.148;2023-04-25T16:25:01;9.80;99.90